Weather History for Jennings, LA

Change the Weather History Date:

Saturday, November 24, 2012

  Actual Average (KLCH) Record (KLCH)
Temperature  
Mean Temperature 49 °F 59 °F  
Max Temperature 59 °F 69 °F 91 °F (1915)
Min Temperature 39 °F 48 °F 28 °F (1911)
Degree Days  
Heating Degree Days 16 8  
Month to date heating degree days 120  
Since 1 July heating degree days 156  
Cooling Degree Days 0 1  
Month to date cooling degree days 48  
Year to date cooling degree days 2781  
Moisture  
Dew Point 36 °F    
Average Humidity 61    
Maximum Humidity 84    
Minimum Humidity 36    
Precipitation  
Precipitation 0.00 in 0.14 in 2.41 in (1986)
Month to date precipitation 3.57  
Year to date precipitation 51.95  
Snow  
Snow - 0.00 in 0.00 in ()
Month to date snowfall 0.0  
Since 1 July snowfall 0.0  
Since 1 September snowfall 0.0  
Snow Depth -    
Sea Level Pressure  
Sea Level Pressure 30.28 in    
Wind  
Wind Speed 6 mph ()    
Max Wind Speed 15 mph    
Max Gust Speed 17 mph    
Visibility 10.0 miles    
Events      
T = Trace of Precipitation, MM = Missing Value Source: Averaged Metar Reports

Daily Weather History Graph

Daily Weather History Graph

Search for Another Location

Airport:

Trip Planner

Search our weather history database for the weather conditions in past years. The results will help you decide how hot, cold, wet, or windy it might be!

Date:

Astronomy

Nov. 24, 2012 Rise Set
Actual Time 6:44 AM CST 5:10 PM CST
Civil Twilight 6:18 AM CST 5:36 PM CST
Nautical Twilight 5:48 AM CST 6:05 PM CST
Astronomical Twilight 5:20 AM CST 6:34 PM CST
Moon 2:45 PM CST (11/24) 3:13 AM CST (11/24)
Length of Visible Light 11h 18m
Length of Day
10h 26m
Waxing Gibbous, 87% of the Moon is Illuminated
Nov 24
Waxing Gibbous
Nov 28
Full
Dec 6
Last Quarter
Dec 13
New
Dec 19
First Quarter

Hourly Weather History & Observations

Time (CST) Temp. Windchill Dew Point Humidity Pressure Visibility Wind Dir Wind Speed Gust Speed Precip Events Conditions
12:15 AM 56.7 °F - 45.7 °F 67% 30.29 in 10.0 mi North 4.6 mph - N/A   Overcast
12:35 AM 56.5 °F - 45.5 °F 67% 30.29 in 10.0 mi North 5.8 mph - N/A   Overcast
12:55 AM 56.3 °F - 45.7 °F 68% 30.28 in 10.0 mi North 6.9 mph - N/A   Overcast
1:15 AM 56.3 °F - 45.7 °F 68% 30.28 in 10.0 mi North 8.1 mph - N/A   Overcast
1:35 AM 55.6 °F - 47.5 °F 74% 30.29 in 10.0 mi North 10.4 mph - N/A   Overcast
1:55 AM 54.3 °F - 47.7 °F 78% 30.28 in 10.0 mi North 10.4 mph - N/A   Overcast
2:15 AM 52.2 °F - 44.8 °F 76% 30.29 in 10.0 mi North 10.4 mph 16.1 mph N/A   Scattered Clouds
2:35 AM 50.9 °F - 43.7 °F 76% 30.29 in 10.0 mi North 10.4 mph - N/A   Clear
2:55 AM 50.0 °F - 41.9 °F 74% 30.29 in 10.0 mi North 11.5 mph - N/A   Clear
3:15 AM 49.3 °F - 40.6 °F 72% 30.30 in 10.0 mi North 10.4 mph - N/A   Clear
3:35 AM 48.6 °F - 39.4 °F 71% 30.30 in 10.0 mi North 10.4 mph - N/A   Clear
3:55 AM 47.8 °F - 39.4 °F 72% 30.29 in 10.0 mi North 11.5 mph - N/A   Clear
4:15 AM 47.3 °F - 38.3 °F 71% 30.30 in 10.0 mi North 9.2 mph - N/A   Clear
4:35 AM 47.3 °F - 36.9 °F 67% 30.30 in 10.0 mi North 10.4 mph - N/A   Clear
4:55 AM 46.4 °F 41.1 °F 36.9 °F 69% 30.30 in 10.0 mi NNE 11.5 mph - N/A   Clear
5:15 AM 46.0 °F 41.0 °F 36.0 °F 68% 30.31 in 10.0 mi North 10.4 mph - N/A   Clear
5:35 AM 45.1 °F 40.3 °F 36.0 °F 70% 30.32 in 10.0 mi North 9.2 mph - N/A   Clear
5:55 AM 44.4 °F 40.0 °F 35.6 °F 71% 30.32 in 10.0 mi NNE 8.1 mph - N/A   Clear
6:15 AM 43.9 °F 39.9 °F 35.1 °F 71% 30.33 in 10.0 mi NNE 6.9 mph - N/A   Clear
6:35 AM 43.0 °F 38.8 °F 35.6 °F 75% 30.33 in 10.0 mi North 6.9 mph - N/A   Clear
6:55 AM 42.3 °F 38.6 °F 35.4 °F 77% 30.33 in 10.0 mi North 5.8 mph - N/A   Clear
7:15 AM 42.8 °F 39.3 °F 34.9 °F 74% 30.35 in 10.0 mi NNE 5.8 mph - N/A   Clear
7:35 AM 43.7 °F 38.6 °F 34.2 °F 69% 30.35 in 10.0 mi NNE 9.2 mph - N/A   Clear
7:55 AM 44.6 °F 38.8 °F 34.0 °F 66% 30.35 in 10.0 mi NNE 11.5 mph - N/A   Clear
8:15 AM 45.3 °F 39.3 °F 33.8 °F 64% 30.36 in 10.0 mi NE 12.7 mph - N/A   Clear
8:35 AM 45.9 °F 39.4 °F 33.4 °F 62% 30.35 in 10.0 mi NNE 15.0 mph - N/A   Clear
8:55 AM 46.9 °F - 33.3 °F 59% 30.36 in 10.0 mi NE 11.5 mph 17.3 mph N/A   Clear
9:15 AM 47.5 °F - 33.3 °F 58% 30.36 in 10.0 mi NNE 9.2 mph - N/A   Clear
9:35 AM 48.4 °F - 33.4 °F 56% 30.35 in 10.0 mi NNE 9.2 mph - N/A   Clear
9:55 AM 49.8 °F - 33.3 °F 53% 30.36 in 10.0 mi NE 6.9 mph 10.4 mph N/A   Clear
10:15 AM 50.5 °F - 33.4 °F 52% 30.36 in 10.0 mi NNE 8.1 mph - N/A   Clear
10:35 AM 50.9 °F - 33.1 °F 51% 30.35 in 10.0 mi North 6.9 mph - N/A   Clear
10:55 AM 52.0 °F - 33.1 °F 49% 30.34 in 10.0 mi North 6.9 mph - N/A   Clear
11:15 AM 53.1 °F - 33.4 °F 47% 30.34 in 10.0 mi NE 5.8 mph - N/A   Clear
11:35 AM 54.1 °F - 33.1 °F 45% 30.33 in 10.0 mi NNE 9.2 mph - N/A   Clear
11:55 AM 54.9 °F - 32.9 °F 43% 30.31 in 10.0 mi NNE 11.5 mph - N/A   Clear
12:15 PM 55.0 °F - 32.9 °F 43% 30.30 in 10.0 mi North 9.2 mph - N/A   Clear
12:35 PM 55.2 °F - 32.7 °F 43% 30.29 in 10.0 mi North 4.6 mph - N/A   Clear
12:55 PM 56.3 °F - 32.4 °F 40% 30.28 in 10.0 mi NNW 6.9 mph - N/A   Clear
1:15 PM 57.0 °F - 32.7 °F 40% 30.26 in 10.0 mi North 6.9 mph - N/A   Clear
1:35 PM 57.4 °F - 32.5 °F 39% 30.25 in 10.0 mi NNW 6.9 mph - N/A   Clear
1:55 PM 57.9 °F - 32.7 °F 39% 30.25 in 10.0 mi North 8.1 mph - N/A   Clear
2:15 PM 58.3 °F - 32.9 °F 38% 30.24 in 10.0 mi NNW 6.9 mph - N/A   Clear
2:35 PM 59.0 °F - 33.3 °F 38% 30.23 in 10.0 mi North 4.6 mph - N/A   Clear
2:55 PM 58.8 °F - 32.4 °F 37% 30.22 in 10.0 mi North 8.1 mph - N/A   Clear
3:15 PM 58.8 °F - 32.2 °F 37% 30.22 in 10.0 mi North 6.9 mph - N/A   Clear
3:35 PM 58.3 °F - 31.8 °F 37% 30.22 in 10.0 mi NNE 3.5 mph - N/A   Clear
3:55 PM 58.3 °F - 31.3 °F 36% 30.22 in 10.0 mi NNE 8.1 mph - N/A   Clear
4:15 PM 57.4 °F - 31.1 °F 37% 30.22 in 10.0 mi NNE 8.1 mph - N/A   Clear
4:35 PM 56.5 °F - 31.6 °F 39% 30.22 in 10.0 mi NE 5.8 mph - N/A   Clear
4:55 PM 55.4 °F - 31.8 °F 41% 30.22 in 10.0 mi NE 5.8 mph - N/A   Clear
5:15 PM 53.2 °F - 32.0 °F 44% 30.22 in 10.0 mi NNE 3.5 mph - N/A   Clear
5:35 PM 52.2 °F - 32.0 °F 46% 30.22 in 10.0 mi Calm Calm - N/A   Clear
5:55 PM 51.3 °F - 32.9 °F 50% 30.23 in 10.0 mi Calm Calm - N/A   Clear
6:15 PM 49.8 °F - 33.4 °F 53% 30.23 in 10.0 mi Calm Calm - N/A   Clear
6:35 PM 47.3 °F - 33.8 °F 59% 30.23 in 10.0 mi Calm Calm - N/A   Clear
6:55 PM 45.9 °F - 35.1 °F 66% 30.23 in 10.0 mi Calm Calm - N/A   Clear
7:15 PM 45.9 °F - 34.9 °F 66% 30.23 in 10.0 mi Calm Calm - N/A   Clear
7:35 PM 46.2 °F - 34.2 °F 63% 30.23 in 10.0 mi Calm Calm - N/A   Clear
7:55 PM 43.7 °F - 34.7 °F 71% 30.23 in 10.0 mi Calm Calm - N/A   Clear
8:15 PM 43.5 °F - 34.7 °F 71% 30.23 in 10.0 mi Calm Calm - N/A   Clear
8:35 PM 44.1 °F - 35.4 °F 72% 30.23 in 10.0 mi Calm Calm - N/A   Clear
8:55 PM 42.8 °F - 35.1 °F 74% 30.23 in 10.0 mi Calm Calm - N/A   Clear
9:15 PM 41.5 °F - 35.1 °F 78% 30.23 in 10.0 mi Calm Calm - N/A   Clear
9:35 PM 41.5 °F - 35.1 °F 78% 30.22 in 10.0 mi Calm Calm - N/A   Clear
9:55 PM 40.1 °F - 35.1 °F 82% 30.22 in 10.0 mi Calm Calm - N/A   Clear
10:15 PM 40.1 °F - 34.9 °F 82% 30.21 in 10.0 mi Calm Calm - N/A   Clear
10:35 PM 40.8 °F - 34.7 °F 79% 30.21 in 10.0 mi Calm Calm - N/A   Clear
10:55 PM 39.9 °F - 34.7 °F 82% 30.21 in 10.0 mi Calm Calm - N/A   Clear
11:15 PM 39.6 °F - 34.7 °F 83% 30.20 in 10.0 mi Calm Calm - N/A   Clear
11:35 PM 39.6 °F - 34.7 °F 83% 30.20 in 10.0 mi Calm Calm - N/A   Clear
11:55 PM 39.2 °F - 34.7 °F 84% 30.19 in 10.0 mi Calm Calm - N/A   Clear